Flight Track Log - Related Links

Times and Time Zones

All times are in EDT time to prevent confusion due to time zone crossing. See the KAP910 flight status page for this flight to view local times or setup timezone preferences in your user account.

Time Position Orientation Groundspeed Altitude Reporting Facility
EDT Latitude Longitude Course Direction KTS MPH feet Rate Location/Type
Mon 09:41:50 AM 43.5550 -72.2969 191° South 161 185 2,700  Level Boston Center
Mon 09:42:50 AM 43.5217 -72.3056 191° South 154 177 3,500 750 Climbing Boston Center
Mon 09:43:50 AM 43.4861 -72.3169 193° South 136 157 4,200 750 Climbing Boston Center
Mon 09:44:50 AM 43.4486 -72.3172 180° South 136 157 5,000 800 Climbing Boston Center
Mon 09:45:50 AM 43.4111 -72.3228 186° South 136 157 5,800 750 Climbing Boston Center
Mon 09:46:50 AM 43.3756 -72.3258 184° South 136 157 6,500 600 Climbing Boston Center
Mon 09:47:50 AM 43.3361 -72.3203 174° South 143 165 7,000 250 Climbing Boston Center
Mon 09:48:50 AM 43.2922 -72.3089 169° South 154 177 7,000  Level Boston Center
Mon 09:51:00 AM 43.2092 -72.2722 162° South  Level FlightAware Approximate
Mon 09:51:50 AM 43.1547 -72.2722 162° South 164 189 7,000  Level Boston Center
Mon 09:53:00 AM 43.1139 -72.2404 150° Southeast  Level FlightAware Approximate
Mon 09:53:50 AM 43.0672 -72.2411 150° Southeast 164 189 7,000  Level Boston Center
Mon 09:54:50 AM 43.0233 -72.2272 167° South 164 189 7,000  Level Boston Center
Mon 09:55:50 AM 42.9794 -72.2131 167° South 159 183 7,000  Level Boston Center
Mon 09:56:50 AM 42.9358 -72.1992 167° South 159 183 7,000  Level Boston Center
Mon 09:57:50 AM 42.8942 -72.1878 169° South 159 183 7,000  Level Boston Center
Mon 09:59:00 AM 42.8490 -72.1704 164° South  Level FlightAware Approximate
Mon 09:59:50 AM 42.8106 -72.1458 164° South 159 183 7,000  Level Boston Center
Mon 10:01:00 AM 42.7650 -72.1300 166° South  Level FlightAware Approximate
Mon 10:01:50 AM 42.7333 -72.0925 166° South 159 183 7,000  Level Boston Center
Mon 10:02:50 AM 42.6936 -72.0617 150° Southeast 159 183 7,000 44 Level Boston Center
Mon 10:04:06 AM 42.6394 -72.0394 163° South 160 184 7,100  Climbing Boston Center
Mon 10:04:50 AM 42.6122 -72.0142 146° Southeast 154 177 7,000 -58 Descending Boston Center
Mon 10:05:50 AM 42.5725 -71.9919 158° South 154 177 7,000  Level Boston Center
Mon 10:06:50 AM 42.5328 -71.9611 150° Southeast 154 177 7,000  Level Boston Center
Mon 10:08:00 AM 42.4869 -71.9746 192° South  Level FlightAware Approximate
Mon 10:08:50 AM 42.4556 -71.9111 192° South 154 177 7,000  Level Boston Center
Mon 10:10:04 AM 42.4053 -71.8806 156° South 158 182 7,000  Level Boston Center
Mon 10:10:50 AM 42.3758 -71.8556 148° Southeast 159 183 7,000  Level Boston Center
Mon 10:11:05 AM 42.3656 -71.8556 180° South 159 183 7,000 100 Level Boston Center
Mon 10:11:50 AM 42.3361 -71.8278 145° Southeast 159 183 7,100  Climbing Boston Center
Mon 10:12:05 AM 42.3236 -71.8281 181° South 161 185 7,000  Descending Boston Center
Mon 10:13:50 AM 42.2567 -71.7725 148° Southeast 159 183 7,100  Climbing Boston Center
Mon 10:15:13 AM 42.2003 -71.7422 158° South 160 184 7,000 -51 Descending Boston Center
Mon 10:15:48 AM 42.1772 -71.7258 152° Southeast 162 186 7,000  Level Boston Center
Mon 10:17:00 AM 42.1575 -71.6683 164° South  Level Estimated
Mon 10:20:02 AM 42.0078 -71.6131 228° Southwest 159 183 7,000  Level Boston Center
Mon 10:21:34 AM 41.9450 -71.5775 157° South 160 184 7,000  Level Boston Center
Mon 10:22:02 AM 41.9261 -71.5611 147° Southeast 154 177 7,000  Level Boston Center
Mon 10:22:35 AM 41.9092 -71.5392 136° Southeast 160 184 7,000  Level Boston Center
Mon 10:23:02 AM 41.9047 -71.5139 103° East 147 169 7,000  Level Boston Center
Mon 10:23:35 AM 41.8983 -71.4833 106° East 161 185 7,000  Level Boston Center
Mon 10:24:00 AM 42.0387 -71.3240 128° Southeast  Level Estimated
Mon 10:25:00 AM 42.0119 -71.3645 228° Southwest  Level FlightAware Approximate
Mon 10:25:00 AM 41.8433 -71.4631 165° South  Level FlightAware Approximate
Mon 10:25:36 AM 41.8742 -71.3667 165° South 159 183 7,000  Level Boston Center
Mon 10:26:02 AM 41.8719 -71.3472 99° East 157 181 7,000  Level Boston Center
Mon 10:27:02 AM 41.8589 -71.2833 105° East 162 186 7,000  Level Boston Center
Mon 10:29:02 AM 41.8389 -71.1667 103° East 162 186 7,000  Level Boston Center
Mon 10:30:02 AM 41.8278 -71.1167 107° East 162 186 7,000  Level Boston Center
Mon 10:32:02 AM 41.8056 -71.0031 105° East 157 181 7,000  Level Boston Center
Mon 10:33:02 AM 41.7922 -70.9364 105° East 162 186 7,000  Level Boston Center
Mon 10:34:02 AM 41.7853 -70.8867 101° East 162 186 7,000 -200 Level Boston Center
Mon 10:35:02 AM 41.7803 -70.8225 96° East 162 186 6,600 -550 Descending Boston Center
Mon 10:36:02 AM 41.7794 -70.7697 91° East 162 186 5,900 -850 Descending Boston Center
Mon 10:37:02 AM 41.7803 -70.6889 89° East 168 193 4,900 -800 Descending Boston Center
Mon 10:38:02 AM 41.7792 -70.6194 91° East 179 206 4,300 -650 Descending Boston Center
Mon 10:39:02 AM 41.7781 -70.5525 91° East 179 206 3,600 -620 Descending Boston Center
Mon 10:41:00 AM 41.7417 -70.4613 104° East  Level Estimated
Mon 10:43:02 AM 41.7139 -70.3375 104° East 151 174 1,200  Level Boston Center
Mon 10:45:00 AM 41.6693 -70.2804 136° Southeast  Level Estimated
Mon 10:48:00 AM 41.6693 -70.2804 104° East  Level Estimated
Mon 10:54:00 AM 41.6693 -70.2804 346° North  Level Estimated
Mon 10:55:00 AM 41.6693 -70.2804 346° North  Level Estimated
Mon 10:56:00 AM 41.6693 -70.2804 346° North  Level Estimated
Mon 10:57:00 AM 41.6693 -70.2804 346° North  Level Estimated
Mon 10:58:00 AM 41.6693 -70.2804 346° North  Level Estimated
Mon 10:59:00 AM 41.6693 -70.2804 346° North  Level Estimated
Mon 11:00:00 AM 41.6693 -70.2804 346° North  Level Estimated

Login

Don't have an account? Register now (free) for customized features, flight alerts, and more!